Station History

Weather Underground - logo

Station Historical Data
Daily Summary for January 20, 2018 Units:  Metric    English   Both
« Previous Day
Next Day »
Daily Weekly Monthly Yearly Custom
  High: Low: Average:
Temperature: 10.6 °C 1.4 °C 5.6 °C
Dew Point: 5.7 °C 0.4 °C 3.7 °C
Humidity: 96 % 71 % 89 %
Wind Speed: 14.8 km/h 0 km/h 1 km/h
Wind Gust: 14.8 km/h - -
Wind:- - South
Pressure: 1026 hPa 1017.8 hPa -
Precipitation: 0 mm    
Historical Graphs
 
 
Tabular Data for January 20, 2018
Time Temperature Dew Point Pressure Wind Wind Speed Wind Gust Humidity Rainfall Rate (Hourly)
00:00 4.6 °C 3.8 °C 1017.8 hPa Calm     95 % 0 mm
00:05 4.6 °C 3.8 °C 1017.8 hPa Calm     95 % 0 mm
00:10 4.6 °C 3.9 °C 1017.8 hPa Calm     95 % 0 mm
00:15 4.6 °C 3.9 °C 1017.8 hPa Calm     95 % 0 mm
00:20 4.5 °C 3.8 °C 1017.8 hPa Calm     95 % 0 mm
00:26 4.3 °C 3.4 °C 1017.8 hPa Calm     94 % 0 mm
00:30 4.1 °C 3.2 °C 1017.8 hPa West 1.9 km/h 1.9 km/h 94 % 0 mm
00:36 4.1 °C 3.4 °C 1017.8 hPa Calm     95 % 0 mm
00:41 4.2 °C 3.5 °C 1017.8 hPa Calm     95 % 0 mm
00:46 4.1 °C 3.4 °C 1017.8 hPa Calm     95 % 0 mm
00:51 3.9 °C 3.1 °C 1017.8 hPa Calm     94 % 0 mm
00:56 3.7 °C 2.8 °C 1017.8 hPa Calm     94 % 0 mm
01:01 3.7 °C 2.8 °C 1017.8 hPa Calm     94 % 0 mm
01:06 3.6 °C 2.9 °C 1017.8 hPa Calm     95 % 0 mm
01:11 3.6 °C 2.8 °C 1017.8 hPa Calm     95 % 0 mm
01:16 3.5 °C 2.8 °C 1017.8 hPa Calm     95 % 0 mm
01:21 3.5 °C 2.8 °C 1017.8 hPa Calm     95 % 0 mm
01:26 3.4 °C 2.7 °C 1017.8 hPa Calm     95 % 0 mm
01:31 3.4 °C 2.7 °C 1017.8 hPa Calm     95 % 0 mm
01:36 3.3 °C 2.6 °C 1017.8 hPa Calm     95 % 0 mm
01:41 3.2 °C 2.5 °C 1017.8 hPa Calm     95 % 0 mm
01:46 3.2 °C 2.4 °C 1017.8 hPa Calm     95 % 0 mm
01:51 3.2 °C 2.4 °C 1017.8 hPa Calm     95 % 0 mm
01:56 3.2 °C 2.4 °C 1017.8 hPa Calm     95 % 0 mm
02:01 3.2 °C 2.4 °C 1017.8 hPa Calm     95 % 0 mm
02:06 3.2 °C 2.5 °C 1017.8 hPa West 14.8 km/h 14.8 km/h 95 % 0 mm
02:11 3.3 °C 2.6 °C 1017.8 hPa Calm     95 % 0 mm
02:16 3.2 °C 2.5 °C 1017.8 hPa Calm     95 % 0 mm
02:21 3.2 °C 2.4 °C 1017.8 hPa Calm     95 % 0 mm
02:26 3.2 °C 2.5 °C 1017.8 hPa Calm     95 % 0 mm
02:31 3.2 °C 2.4 °C 1017.8 hPa Calm     95 % 0 mm
02:36 3.2 °C 2.5 °C 1017.8 hPa Calm     95 % 0 mm
02:41 3.2 °C 2.4 °C 1018.2 hPa Calm     95 % 0 mm
02:46 3.1 °C 2.4 °C 1017.8 hPa Calm     95 % 0 mm
02:51 3 °C 2.3 °C 1017.8 hPa Calm     95 % 0 mm
02:56 2.9 °C 2.2 °C 1017.8 hPa Calm     95 % 0 mm
03:01 2.9 °C 2.2 °C 1017.8 hPa Calm     95 % 0 mm
03:06 2.9 °C 2.2 °C 1017.8 hPa Calm     95 % 0 mm
03:11 3 °C 2.3 °C 1017.8 hPa Calm     95 % 0 mm
03:16 2.9 °C 2.2 °C 1017.8 hPa Calm     95 % 0 mm
03:21 2.9 °C 2.2 °C 1017.8 hPa Calm     95 % 0 mm
03:26 2.9 °C 2.2 °C 1017.8 hPa Calm     95 % 0 mm
03:31 2.9 °C 2.2 °C 1017.8 hPa Calm     95 % 0 mm
03:36 2.7 °C 2 °C 1017.8 hPa Calm     95 % 0 mm
03:41 2.6 °C 1.9 °C 1017.8 hPa Calm     95 % 0 mm
03:46 2.6 °C 1.8 °C 1017.8 hPa Calm     95 % 0 mm
03:51 2.4 °C 1.7 °C 1017.8 hPa Calm     95 % 0 mm
03:56 2.4 °C 1.7 °C 1017.8 hPa Calm     95 % 0 mm
04:01 2.3 °C 1.6 °C 1017.8 hPa Calm     95 % 0 mm
04:06 2.2 °C 1.5 °C 1017.8 hPa Calm     95 % 0 mm
04:11 2.2 °C 1.4 °C 1018.2 hPa Calm     95 % 0 mm
04:16 2.1 °C 1.4 °C 1018.2 hPa Calm     95 % 0 mm
04:21 2 °C 1.3 °C 1018.2 hPa Calm     95 % 0 mm
04:25 2.1 °C 1.3 °C 1018.2 hPa Calm     95 % 0 mm
04:30 2.2 °C 1.4 °C 1018.2 hPa Calm     95 % 0 mm
04:35 2.2 °C 1.6 °C 1018.2 hPa Calm     96 % 0 mm
04:40 2.3 °C 1.8 °C 1018.2 hPa Calm     96 % 0 mm
04:45 2.5 °C 1.9 °C 1018.5 hPa Calm     96 % 0 mm
04:50 2.6 °C 2.1 °C 1018.5 hPa Calm     96 % 0 mm
04:55 2.7 °C 2.2 °C 1018.5 hPa Calm     96 % 0 mm
05:00 2.8 °C 2.3 °C 1018.5 hPa Calm     96 % 0 mm
05:05 2.9 °C 2.4 °C 1018.5 hPa Calm     96 % 0 mm
05:10 3.1 °C 2.5 °C 1018.5 hPa Calm     96 % 0 mm
05:15 3.2 °C 2.6 °C 1018.8 hPa Calm     96 % 0 mm
05:20 3.3 °C 2.7 °C 1018.8 hPa Calm     96 % 0 mm
05:25 3.4 °C 2.9 °C 1018.8 hPa Calm     96 % 0 mm
05:30 3.7 °C 3.1 °C 1018.8 hPa Calm     96 % 0 mm
05:35 3.8 °C 3.3 °C 1018.8 hPa Calm     96 % 0 mm
05:40 3.9 °C 3.4 °C 1018.8 hPa Calm     96 % 0 mm
05:45 4 °C 3.4 °C 1019.2 hPa Calm     96 % 0 mm
05:50 4.1 °C 3.5 °C 1019.2 hPa Calm     96 % 0 mm
05:55 4.1 °C 3.6 °C 1019.2 hPa Calm     96 % 0 mm
06:00 4.2 °C 3.7 °C 1019.2 hPa Calm     96 % 0 mm
06:05 4.3 °C 3.7 °C 1019.2 hPa Calm     96 % 0 mm
06:10 4.3 °C 3.7 °C 1019.5 hPa Calm     96 % 0 mm
06:15 4.3 °C 3.8 °C 1019.5 hPa Calm     96 % 0 mm
06:20 4.4 °C 3.8 °C 1019.5 hPa West 1.9 km/h   96 % 0 mm
06:25 4.4 °C 3.8 °C 1019.5 hPa West 1.9 km/h   96 % 0 mm
06:30 4.4 °C 3.8 °C 1019.5 hPa Calm     96 % 0 mm
06:35 4.4 °C 3.9 °C 1019.5 hPa Calm     96 % 0 mm
06:40 4.4 °C 3.9 °C 1019.5 hPa Calm     96 % 0 mm
06:45 4.5 °C 3.9 °C 1019.5 hPa West 1.9 km/h 1.9 km/h 96 % 0 mm
06:50 4.6 °C 4 °C 1019.5 hPa Calm     96 % 0 mm
06:55 4.6 °C 4 °C 1019.5 hPa Calm     96 % 0 mm
07:01 4.6 °C 4 °C 1019.5 hPa Calm     96 % 0 mm
07:06 4.6 °C 4.1 °C 1019.5 hPa West 1.9 km/h 1.9 km/h 96 % 0 mm
07:11 4.6 °C 4.1 °C 1019.9 hPa Calm     96 % 0 mm
07:16 4.7 °C 4.1 °C 1019.9 hPa West 1.6 km/h   96 % 0 mm
07:21 4.7 °C 4.1 °C 1019.9 hPa West 1.9 km/h   96 % 0 mm
07:26 4.7 °C 4.1 °C 1019.9 hPa Calm     96 % 0 mm
07:31 4.7 °C 4.1 °C 1019.9 hPa West 1.9 km/h   96 % 0 mm
07:36 4.8 °C 4.2 °C 1019.9 hPa Calm     96 % 0 mm
07:41 4.8 °C 4.2 °C 1020.2 hPa Calm     96 % 0 mm
07:46 4.8 °C 4.2 °C 1020.2 hPa Calm     96 % 0 mm
07:51 4.8 °C 4.2 °C 1020.2 hPa Calm     96 % 0 mm
07:56 4.9 °C 4.3 °C 1020.5 hPa WSW 1.9 km/h   96 % 0 mm
08:01 4.9 °C 4.3 °C 1020.5 hPa Calm     96 % 0 mm
08:06 5.1 °C 4.4 °C 1020.9 hPa Calm     96 % 0 mm
08:11 5.1 °C 4.5 °C 1020.9 hPa West 1.9 km/h 1.9 km/h 96 % 0 mm
08:16 5.1 °C 4.5 °C 1020.9 hPa Calm     96 % 0 mm
08:21 5.2 °C 4.4 °C 1021.2 hPa WSW 1.9 km/h 1.9 km/h 95 % 0 mm
08:26 5.3 °C 4.7 °C 1021.2 hPa Calm   0.2 km/h 96 % 0 mm
08:31 5.3 °C 4.6 °C 1021.6 hPa SSE 1.9 km/h   95 % 0 mm
08:36 5.3 °C 4.6 °C 1021.6 hPa Calm     95 % 0 mm
08:41 5.3 °C 4.6 °C 1021.6 hPa SSE 3.7 km/h 3.7 km/h 95 % 0 mm
08:46 5.2 °C 4.5 °C 1021.6 hPa SE 3.7 km/h 3.7 km/h 95 % 0 mm
08:51 5.2 °C 4.5 °C 1021.9 hPa SE 1.9 km/h 1.9 km/h 95 % 0 mm
08:56 5.3 °C 4.6 °C 1021.9 hPa Calm     95 % 0 mm
09:01 5.5 °C 4.8 °C 1021.9 hPa Calm     95 % 0 mm
09:06 5.7 °C 4.9 °C 1021.9 hPa Calm     95 % 0 mm
09:11 5.8 °C 5.1 °C 1021.9 hPa SE 1.9 km/h 1.9 km/h 95 % 0 mm
09:16 5.9 °C 5.1 °C 1022.2 hPa SE 1.9 km/h 1.9 km/h 94 % 0 mm
09:21 6 °C 5.1 °C 1022.2 hPa Calm     94 % 0 mm
09:26 6.3 °C 5.4 °C 1022.2 hPa Calm     94 % 0 mm
09:31 6.6 °C 5.6 °C 1022.2 hPa Calm     93 % 0 mm
09:36 6.7 °C 5.7 °C 1022.2 hPa SSW 1.9 km/h   93 % 0 mm
09:41 6.8 °C 5.4 °C 1022.2 hPa Calm     91 % 0 mm
09:46 6.8 °C 5.4 °C 1022.6 hPa Calm     91 % 0 mm
09:51 6.7 °C 5.2 °C 1022.6 hPa NW 3.2 km/h 3.2 km/h 90 % 0 mm
09:56 6.7 °C 5 °C 1022.6 hPa WSW 1.9 km/h   89 % 0 mm
10:01 6.6 °C 4.7 °C 1022.6 hPa WSW 1.9 km/h 1.9 km/h 88 % 0 mm
10:06 6.5 °C 4.7 °C 1022.6 hPa Calm   1 km/h 88 % 0 mm
10:11 6.4 °C 4.8 °C 1022.9 hPa Calm     89 % 0 mm
10:16 6.5 °C 4.7 °C 1022.6 hPa Calm   0.5 km/h 88 % 0 mm
10:21 6.5 °C 4.7 °C 1022.9 hPa West 1.9 km/h 1.9 km/h 88 % 0 mm
10:26 6.5 °C 4.7 °C 1022.9 hPa NW 1.9 km/h 1.9 km/h 88 % 0 mm
10:31 6.5 °C 4.7 °C 1022.9 hPa WNW 1.9 km/h 1.9 km/h 88 % 0 mm
10:36 6.7 °C 4.8 °C 1022.9 hPa NNW 3.7 km/h 3.7 km/h 88 % 0 mm
10:41 6.7 °C 4.7 °C 1022.9 hPa NW 5.6 km/h 5.6 km/h 87 % 0 mm
10:46 6.9 °C 4.7 °C 1022.9 hPa WNW 1.9 km/h 1.9 km/h 86 % 0 mm
10:51 7 °C 4.8 °C 1022.9 hPa WNW 1.9 km/h 1.9 km/h 86 % 0 mm
10:56 7.2 °C 4.8 °C 1022.6 hPa NNW 1.6 km/h   85 % 0 mm
11:01 7.3 °C 5.2 °C 1022.6 hPa NW 1.9 km/h 1.9 km/h 86 % 0 mm
11:06 7.6 °C 5.2 °C 1022.6 hPa Calm     85 % 0 mm
11:11 7.8 °C 5.2 °C 1022.6 hPa WNW 1.9 km/h 1.9 km/h 84 % 0 mm
11:16 8 °C 5.4 °C 1022.6 hPa NNW 1.6 km/h 1.6 km/h 84 % 0 mm
11:21 8.2 °C 5.6 °C 1022.6 hPa Calm     84 % 0 mm
11:26 8.2 °C 5.3 °C 1022.6 hPa NNW 3.7 km/h 3.7 km/h 82 % 0 mm
11:31 8.4 °C 5.5 °C 1022.2 hPa NNW 1.9 km/h 1.9 km/h 82 % 0 mm
11:36 8.4 °C 5.3 °C 1022.2 hPa NNE 1.9 km/h   81 % 0 mm
11:41 8.3 °C 5.3 °C 1022.2 hPa NW 1.9 km/h   81 % 0 mm
11:46 8.2 °C 5.2 °C 1022.2 hPa NW 3.7 km/h 3.7 km/h 81 % 0 mm
11:51 8.3 °C 5.4 °C 1022.2 hPa Calm     82 % 0 mm
11:56 8.3 °C 5.1 °C 1022.2 hPa WNW 3.7 km/h 3.7 km/h 80 % 0 mm
12:01 8.2 °C 5 °C 1022.2 hPa Calm     80 % 0 mm
12:06 8.4 °C 5.1 °C 1021.9 hPa Calm     80 % 0 mm
12:11 8.6 °C 5.3 °C 1021.9 hPa WNW 1.9 km/h   80 % 0 mm
12:16 8.8 °C 5.2 °C 1021.9 hPa Calm     78 % 0 mm
12:21 8.9 °C 5.6 °C 1021.9 hPa SE 1.9 km/h 1.9 km/h 80 % 0 mm
12:26 9 °C 5.6 °C 1021.9 hPa SSE 1.9 km/h 1.9 km/h 79 % 0 mm
12:31 9.1 °C 5.6 °C 1021.9 hPa Calm     79 % 0 mm
12:36 9.1 °C 5.7 °C 1021.6 hPa East 3.7 km/h 3.7 km/h 79 % 0 mm
12:41 9.2 °C 5.7 °C 1021.6 hPa East 3.7 km/h 3.7 km/h 79 % 0 mm
12:46 9.2 °C 5.3 °C 1021.6 hPa East 3.7 km/h 3.7 km/h 77 % 0 mm
12:51 9 °C 5.4 °C 1021.6 hPa East 5.6 km/h 5.6 km/h 78 % 0 mm
12:56 8.9 °C 5.3 °C 1021.6 hPa East 5.6 km/h 5.6 km/h 78 % 0 mm
13:01 8.9 °C 5.3 °C 1021.6 hPa East 1.9 km/h 1.9 km/h 78 % 0 mm
13:06 8.9 °C 5.3 °C 1021.6 hPa East 1.9 km/h 1.9 km/h 78 % 0 mm
13:11 8.9 °C 5.3 °C 1021.6 hPa ENE 5.6 km/h 5.6 km/h 78 % 0 mm
13:16 9.1 °C 5.6 °C 1021.6 hPa SSE 1.9 km/h 1.9 km/h 79 % 0 mm
13:21 9.1 °C 5.5 °C 1021.6 hPa ESE 3.7 km/h 3.7 km/h 78 % 0 mm
13:26 9.1 °C 5.7 °C 1021.6 hPa SE 5.6 km/h 5.6 km/h 79 % 0 mm
13:31 9.1 °C 5.5 °C 1021.6 hPa East 1.9 km/h 1.9 km/h 78 % 0 mm
13:36 9.1 °C 5.3 °C 1021.6 hPa East 5.6 km/h 5.6 km/h 77 % 0 mm
13:41 9.1 °C 5.5 °C 1021.6 hPa SE 1.9 km/h 1.9 km/h 78 % 0 mm
13:46 9.2 °C 5.4 °C 1021.6 hPa NE 5.6 km/h 5.6 km/h 77 % 0 mm
13:51 9.2 °C 5.2 °C 1021.9 hPa SE 5.6 km/h 5.6 km/h 76 % 0 mm
13:56 9.4 °C 5.6 °C 1021.9 hPa SE 1.9 km/h 1.9 km/h 77 % 0 mm
14:01 9.6 °C 5.7 °C 1021.9 hPa ESE 4.8 km/h 4.8 km/h 77 % 0 mm
14:06 9.8 °C 5.6 °C 1021.9 hPa SE 8 km/h 8 km/h 75 % 0 mm
14:11 9.8 °C 5.6 °C 1021.9 hPa ESE 1.9 km/h 1.9 km/h 75 % 0 mm
14:16 9.8 °C 5.4 °C 1021.9 hPa SE 1.9 km/h 1.9 km/h 74 % 0 mm
14:21 9.8 °C 5.6 °C 1021.9 hPa SE 1.6 km/h 1.6 km/h 75 % 0 mm
14:26 9.9 °C 5.5 °C 1021.9 hPa South 1.9 km/h   74 % 0 mm
14:31 10.1 °C 5.5 °C 1021.9 hPa SE 3.7 km/h 3.7 km/h 73 % 0 mm
14:36 10.1 °C 5.5 °C 1021.9 hPa SE 1.9 km/h   73 % 0 mm
14:41 10.1 °C 5.5 °C 1021.9 hPa SE 1.9 km/h 1.9 km/h 73 % 0 mm
14:46 10.2 °C 5.4 °C 1021.9 hPa Calm     72 % 0 mm
14:51 10.5 °C 5.4 °C 1021.9 hPa SE 5.6 km/h 5.6 km/h 71 % 0 mm
14:56 10.6 °C 5.6 °C 1022.2 hPa SE 3.2 km/h 3.2 km/h 71 % 0 mm
15:01 10.6 °C 5.7 °C 1022.2 hPa SE 1.9 km/h 1.9 km/h 72 % 0 mm
15:06 10.6 °C 5.5 °C 1022.2 hPa ESE 4.8 km/h 4.8 km/h 71 % 0 mm
15:11 10.6 °C 5.5 °C 1022.2 hPa SSE 3.2 km/h 3.2 km/h 71 % 0 mm
15:16 10.5 °C 5.4 °C 1022.2 hPa SE 1.9 km/h 1.9 km/h 71 % 0 mm
15:21 10.3 °C 5.5 °C 1022.2 hPa SSE 5.6 km/h 5.6 km/h 72 % 0 mm
15:26 10.2 °C 5.6 °C 1022.2 hPa SSE 3.7 km/h 3.7 km/h 73 % 0 mm
15:31 10.1 °C 5.6 °C 1022.6 hPa SE 1.9 km/h 1.9 km/h 74 % 0 mm
15:36 10.1 °C 5.3 °C 1022.6 hPa ESE 3.7 km/h 3.7 km/h 72 % 0 mm
15:41 10.1 °C 5.2 °C 1022.6 hPa SSE 1.6 km/h 1.6 km/h 72 % 0 mm
15:46 10.1 °C 5.1 °C 1022.6 hPa South 3.7 km/h 3.7 km/h 71 % 0 mm
15:51 10.1 °C 5.3 °C 1022.6 hPa Calm     72 % 0 mm
15:56 10.1 °C 5.2 °C 1022.6 hPa South 1.9 km/h 1.9 km/h 72 % 0 mm
16:01 10.1 °C 5.2 °C 1022.9 hPa ESE 1.9 km/h 1.9 km/h 72 % 0 mm
16:06 10.1 °C 5.2 °C 1022.9 hPa SSE 5.6 km/h 5.6 km/h 72 % 0 mm
16:11 10 °C 5.2 °C 1022.9 hPa SSW 1.9 km/h   72 % 0 mm
16:16 9.9 °C 5.1 °C 1022.9 hPa SE 1.9 km/h   72 % 0 mm
16:21 9.8 °C 4.9 °C 1022.9 hPa ESE 1.9 km/h 1.9 km/h 72 % 0 mm
16:26 9.7 °C 5.1 °C 1023.2 hPa Calm     73 % 0 mm
16:31 9.6 °C 5 °C 1023.2 hPa SE 1.9 km/h 1.9 km/h 73 % 0 mm
16:36 9.4 °C 5.1 °C 1023.2 hPa SE 1.9 km/h 1.9 km/h 74 % 0 mm
16:41 9.3 °C 4.9 °C 1023.2 hPa Calm     74 % 0 mm
16:46 9.2 °C 4.9 °C 1023.2 hPa Calm     75 % 0 mm
16:51 9 °C 5 °C 1023.2 hPa Calm     76 % 0 mm
16:56 8.8 °C 4.9 °C 1023.2 hPa Calm     77 % 0 mm
17:01 8.7 °C 4.8 °C 1023.2 hPa Calm     77 % 0 mm
17:06 8.6 °C 4.9 °C 1023.2 hPa Calm     78 % 0 mm
17:11 8.4 °C 4.8 °C 1023.2 hPa Calm     78 % 0 mm
17:16 8.2 °C 4.7 °C 1023.6 hPa Calm     79 % 0 mm
17:21 7.9 °C 4.5 °C 1023.6 hPa Calm     79 % 0 mm
17:26 7.8 °C 4.4 °C 1023.6 hPa Calm     79 % 0 mm
17:31 7.7 °C 4.5 °C 1023.6 hPa Calm     80 % 0 mm
17:36 7.6 °C 4.3 °C 1023.6 hPa Calm     80 % 0 mm
17:41 7.3 °C 4.3 °C 1023.6 hPa Calm     81 % 0 mm
17:46 7.1 °C 4.2 °C 1023.6 hPa Calm     82 % 0 mm
17:51 6.8 °C 4.2 °C 1023.6 hPa Calm     83 % 0 mm
17:56 6.7 °C 4.2 °C 1023.6 hPa Calm     84 % 0 mm
18:01 6.6 °C 4.2 °C 1023.9 hPa Calm     85 % 0 mm
18:06 6.5 °C 4.2 °C 1023.9 hPa Calm     85 % 0 mm
18:11 6.3 °C 3.9 °C 1023.9 hPa Calm     85 % 0 mm
18:16 6.1 °C 3.9 °C 1023.9 hPa Calm     86 % 0 mm
18:21 5.9 °C 3.9 °C 1023.9 hPa Calm     87 % 0 mm
18:26 5.7 °C 3.7 °C 1023.9 hPa Calm     87 % 0 mm
18:31 5.5 °C 3.7 °C 1023.9 hPa Calm     88 % 0 mm
18:36 5.3 °C 3.7 °C 1023.9 hPa Calm     89 % 0 mm
18:41 5.3 °C 3.6 °C 1023.6 hPa Calm     89 % 0 mm
18:46 5.2 °C 3.5 °C 1023.9 hPa Calm     89 % 0 mm
18:51 5 °C 3.5 °C 1023.6 hPa Calm     90 % 0 mm
18:56 4.9 °C 3.4 °C 1023.6 hPa Calm     90 % 0 mm
19:01 4.8 °C 3.5 °C 1023.6 hPa Calm     91 % 0 mm
19:06 4.9 °C 3.6 °C 1023.6 hPa Calm     91 % 0 mm
19:11 4.9 °C 3.6 °C 1023.6 hPa Calm     91 % 0 mm
19:16 4.8 °C 3.5 °C 1023.6 hPa Calm     91 % 0 mm
19:21 4.6 °C 3.3 °C 1023.6 hPa Calm     91 % 0 mm
19:26 4.4 °C 3.1 °C 1023.6 hPa Calm     91 % 0 mm
19:31 4.3 °C 3 °C 1023.6 hPa Calm     91 % 0 mm
19:36 4.2 °C 2.9 °C 1023.6 hPa Calm     91 % 0 mm
19:41 4.1 °C 2.7 °C 1023.6 hPa Calm     91 % 0 mm
19:46 4 °C 2.8 °C 1023.6 hPa Calm     92 % 0 mm
19:51 3.9 °C 2.8 °C 1023.6 hPa Calm     92 % 0 mm
19:56 4.1 °C 3 °C 1023.6 hPa Calm     93 % 0 mm
20:01 4 °C 2.9 °C 1023.9 hPa Calm     93 % 0 mm
20:06 4 °C 2.9 °C 1023.9 hPa Calm     93 % 0 mm
20:11 4 °C 2.9 °C 1023.9 hPa Calm     93 % 0 mm
20:16 3.9 °C 2.9 °C 1023.9 hPa Calm     93 % 0 mm
20:21 3.9 °C 2.8 °C 1023.9 hPa Calm     93 % 0 mm
20:26 4 °C 2.9 °C 1023.9 hPa Calm     93 % 0 mm
20:31 4 °C 2.9 °C 1024.3 hPa Calm     93 % 0 mm
20:36 4 °C 2.9 °C 1024.3 hPa Calm     93 % 0 mm
20:41 3.9 °C 2.8 °C 1024.3 hPa Calm     93 % 0 mm
20:46 3.8 °C 2.8 °C 1024.3 hPa Calm     93 % 0 mm
20:51 3.8 °C 2.8 °C 1024.3 hPa Calm     93 % 0 mm
20:56 3.9 °C 2.8 °C 1024.3 hPa Calm     93 % 0 mm
21:01 3.9 °C 2.8 °C 1024.6 hPa Calm     92 % 0 mm
21:06 4.1 °C 2.9 °C 1024.6 hPa Calm     92 % 0 mm
21:11 4.1 °C 2.7 °C 1024.6 hPa SE 1.9 km/h   91 % 0 mm
21:16 4.1 °C 2.7 °C 1024.6 hPa Calm     91 % 0 mm
21:21 4.1 °C 2.6 °C 1024.6 hPa Calm     90 % 0 mm
21:26 4 °C 2.5 °C 1024.6 hPa Calm     90 % 0 mm
21:31 3.8 °C 2.3 °C 1024.6 hPa Calm     90 % 0 mm
21:36 3.6 °C 2.1 °C 1024.9 hPa Calm     90 % 0 mm
21:41 3.3 °C 1.8 °C 1024.9 hPa Calm     90 % 0 mm
21:46 3.1 °C 1.8 °C 1024.9 hPa Calm     91 % 0 mm
21:51 2.9 °C 1.6 °C 1024.9 hPa Calm     91 % 0 mm
21:56 2.8 °C 1.7 °C 1024.9 hPa Calm     92 % 0 mm
22:01 2.7 °C 1.6 °C 1024.9 hPa Calm     92 % 0 mm
22:06 2.7 °C 1.7 °C 1025.3 hPa Calm     93 % 0 mm
22:11 2.7 °C 1.7 °C 1025.3 hPa Calm     93 % 0 mm
22:16 2.8 °C 1.8 °C 1025.3 hPa SE 1.9 km/h 1.9 km/h 93 % 0 mm
22:26 3.1 °C 2.2 °C 1025.3 hPa Calm     94 % 0 mm
22:31 3.2 °C 2.2 °C 1025.3 hPa Calm     93 % 0 mm
22:36 3.1 °C 2.1 °C 1025.3 hPa Calm     93 % 0 mm
22:41 2.9 °C 1.7 °C 1025.3 hPa Calm     92 % 0 mm
22:46 2.6 °C 1.4 °C 1025.3 hPa Calm     92 % 0 mm
22:51 2.3 °C 1.2 °C 1025.3 hPa Calm     92 % 0 mm
22:56 2.1 °C 0.9 °C 1025.6 hPa Calm     92 % 0 mm
23:01 2.1 °C 1.1 °C 1025.6 hPa Calm     93 % 0 mm
23:06 2 °C 1 °C 1025.6 hPa Calm     93 % 0 mm
23:11 1.8 °C 0.8 °C 1025.6 hPa Calm     93 % 0 mm
23:16 1.7 °C 0.7 °C 1025.6 hPa Calm     93 % 0 mm
23:21 1.6 °C 0.6 °C 1026 hPa Calm     93 % 0 mm
23:26 1.5 °C 0.5 °C 1026 hPa Calm     93 % 0 mm
23:31 1.4 °C 0.4 °C 1026 hPa Calm     93 % 0 mm
23:36 1.4 °C 0.4 °C 1026 hPa Calm     93 % 0 mm
23:41 1.4 °C 0.6 °C 1026 hPa Calm     94 % 0 mm
23:46 1.5 °C 0.7 °C 1026 hPa Calm     94 % 0 mm
Park Place, Exeter, Tulare County, California, USA
Compliments of Weather Underground - 2.75 mb